sensor_id;sensor_type;location;lat;lon;timestamp;pressure;altitude;pressure_sealevel;temperature;humidity
46111;BME280;31849;55.992;37.252;2024-01-10T00:01:14;97902.34;;;-2.33;75.96
46111;BME280;31849;55.992;37.252;2024-01-10T00:06:18;97899.84;;;-2.32;76.20
46111;BME280;31849;55.992;37.252;2024-01-10T00:11:23;97889.66;;;-2.32;76.33
46111;BME280;31849;55.992;37.252;2024-01-10T00:16:27;97900.94;;;-2.22;76.43
46111;BME280;31849;55.992;37.252;2024-01-10T00:21:31;97901.00;;;-2.19;76.64
46111;BME280;31849;55.992;37.252;2024-01-10T00:26:36;97913.03;;;-2.13;76.91
46111;BME280;31849;55.992;37.252;2024-01-10T00:31:39;97915.59;;;-2.12;76.94
46111;BME280;31849;55.992;37.252;2024-01-10T00:36:43;97922.53;;;-2.06;76.82
46111;BME280;31849;55.992;37.252;2024-01-10T00:41:48;97908.84;;;-2.09;77.22
46111;BME280;31849;55.992;37.252;2024-01-10T00:46:52;97930.31;;;-2.00;77.13
46111;BME280;31849;55.992;37.252;2024-01-10T00:51:56;97918.53;;;-1.95;76.93
46111;BME280;31849;55.992;37.252;2024-01-10T00:57:01;97942.50;;;-1.86;77.05
46111;BME280;31849;55.992;37.252;2024-01-10T01:02:05;97942.59;;;-1.82;76.51
46111;BME280;31849;55.992;37.252;2024-01-10T01:07:08;97952.91;;;-1.75;76.56
46111;BME280;31849;55.992;37.252;2024-01-10T01:12:13;97967.31;;;-1.78;76.49
46111;BME280;31849;55.992;37.252;2024-01-10T01:17:17;97964.72;;;-1.81;76.58
46111;BME280;31849;55.992;37.252;2024-01-10T01:22:21;97961.97;;;-1.90;75.73
46111;BME280;31849;55.992;37.252;2024-01-10T01:27:26;97991.47;;;-1.98;75.62
46111;BME280;31849;55.992;37.252;2024-01-10T01:32:30;97987.97;;;-2.03;75.95
46111;BME280;31849;55.992;37.252;2024-01-10T01:37:34;98004.03;;;-2.06;75.63
46111;BME280;31849;55.992;37.252;2024-01-10T01:42:39;98035.81;;;-2.25;75.13
46111;BME280;31849;55.992;37.252;2024-01-10T01:47:43;98045.47;;;-2.45;75.91
46111;BME280;31849;55.992;37.252;2024-01-10T01:52:46;98064.53;;;-2.62;75.95
46111;BME280;31849;55.992;37.252;2024-01-10T01:57:52;98072.13;;;-2.64;75.58
46111;BME280;31849;55.992;37.252;2024-01-10T02:02:57;98105.28;;;-2.61;75.32
46111;BME280;31849;55.992;37.252;2024-01-10T02:08:02;98120.03;;;-2.79;75.47
46111;BME280;31849;55.992;37.252;2024-01-10T02:13:07;98133.47;;;-3.12;75.02
46111;BME280;31849;55.992;37.252;2024-01-10T02:18:13;98137.75;;;-3.39;74.71
46111;BME280;31849;55.992;37.252;2024-01-10T02:23:17;98160.47;;;-3.43;74.26
46111;BME280;31849;55.992;37.252;2024-01-10T02:28:22;98174.66;;;-3.50;72.92
46111;BME280;31849;55.992;37.252;2024-01-10T02:33:26;98195.56;;;-3.59;73.06
46111;BME280;31849;55.992;37.252;2024-01-10T02:38:30;98214.16;;;-3.60;73.35
46111;BME280;31849;55.992;37.252;2024-01-10T02:43:36;98238.34;;;-3.71;72.44
46111;BME280;31849;55.992;37.252;2024-01-10T02:48:39;98259.53;;;-3.95;71.77
46111;BME280;31849;55.992;37.252;2024-01-10T02:53:43;98281.31;;;-4.24;70.20
46111;BME280;31849;55.992;37.252;2024-01-10T02:58:49;98308.78;;;-4.36;69.95
46111;BME280;31849;55.992;37.252;2024-01-10T03:03:52;98341.38;;;-4.46;69.94
46111;BME280;31849;55.992;37.252;2024-01-10T03:08:56;98315.09;;;-4.70;69.14
46111;BME280;31849;55.992;37.252;2024-01-10T03:14:03;98348.84;;;-4.92;68.26
46111;BME280;31849;55.992;37.252;2024-01-10T03:19:07;98375.53;;;-5.22;67.04
46111;BME280;31849;55.992;37.252;2024-01-10T03:24:11;98398.59;;;-5.55;68.17
46111;BME280;31849;55.992;37.252;2024-01-10T03:29:17;98408.91;;;-5.70;67.95
46111;BME280;31849;55.992;37.252;2024-01-10T03:34:21;98454.09;;;-5.97;67.11
46111;BME280;31849;55.992;37.252;2024-01-10T03:39:24;98460.03;;;-6.32;67.00
46111;BME280;31849;55.992;37.252;2024-01-10T03:44:29;98480.03;;;-6.55;67.38
46111;BME280;31849;55.992;37.252;2024-01-10T03:49:33;98502.56;;;-6.60;67.67
46111;BME280;31849;55.992;37.252;2024-01-10T03:54:37;98527.69;;;-6.63;67.17
46111;BME280;31849;55.992;37.252;2024-01-10T03:59:42;98547.47;;;-6.72;66.83
46111;BME280;31849;55.992;37.252;2024-01-10T04:04:46;98571.31;;;-6.83;66.40
46111;BME280;31849;55.992;37.252;2024-01-10T04:09:50;98586.63;;;-6.97;66.26
46111;BME280;31849;55.992;37.252;2024-01-10T04:14:55;98629.63;;;-7.12;65.94
46111;BME280;31849;55.992;37.252;2024-01-10T04:19:59;98627.28;;;-7.40;65.04
46111;BME280;31849;55.992;37.252;2024-01-10T04:25:06;98653.84;;;-7.77;65.13
46111;BME280;31849;55.992;37.252;2024-01-10T04:30:13;98656.13;;;-7.96;66.37
46111;BME280;31849;55.992;37.252;2024-01-10T04:35:16;98677.44;;;-8.06;66.25
46111;BME280;31849;55.992;37.252;2024-01-10T04:40:20;98685.06;;;-8.19;65.87
46111;BME280;31849;55.992;37.252;2024-01-10T04:45:25;98704.13;;;-8.38;65.85
46111;BME280;31849;55.992;37.252;2024-01-10T04:50:29;98704.34;;;-8.63;66.25
46111;BME280;31849;55.992;37.252;2024-01-10T04:55:33;98726.34;;;-8.60;65.49
46111;BME280;31849;55.992;37.252;2024-01-10T05:00:38;98747.50;;;-8.85;65.69
46111;BME280;31849;55.992;37.252;2024-01-10T05:05:42;98754.69;;;-8.91;65.55
46111;BME280;31849;55.992;37.252;2024-01-10T05:10:46;98780.06;;;-9.02;65.95
46111;BME280;31849;55.992;37.252;2024-01-10T05:15:52;98804.31;;;-9.04;65.74
46111;BME280;31849;55.992;37.252;2024-01-10T05:20:57;98814.56;;;-9.14;65.68
46111;BME280;31849;55.992;37.252;2024-01-10T05:26:00;98829.06;;;-9.23;65.76
46111;BME280;31849;55.992;37.252;2024-01-10T05:31:06;98843.75;;;-9.29;66.08
46111;BME280;31849;55.992;37.252;2024-01-10T05:36:10;98859.97;;;-9.26;65.98
46111;BME280;31849;55.992;37.252;2024-01-10T05:41:15;98873.22;;;-9.28;66.11
46111;BME280;31849;55.992;37.252;2024-01-10T05:46:20;98875.13;;;-9.38;65.84
46111;BME280;31849;55.992;37.252;2024-01-10T05:51:24;98890.78;;;-9.42;65.64
46111;BME280;31849;55.992;37.252;2024-01-10T05:56:27;98910.25;;;-9.39;66.01
46111;BME280;31849;55.992;37.252;2024-01-10T06:01:33;98923.19;;;-9.46;65.82
46111;BME280;31849;55.992;37.252;2024-01-10T06:06:36;98936.31;;;-9.39;65.24
46111;BME280;31849;55.992;37.252;2024-01-10T06:11:41;98955.94;;;-9.46;65.03
46111;BME280;31849;55.992;37.252;2024-01-10T06:16:47;98959.50;;;-9.43;65.16
46111;BME280;31849;55.992;37.252;2024-01-10T06:21:53;98968.28;;;-9.38;65.17
46111;BME280;31849;55.992;37.252;2024-01-10T06:27:09;98991.94;;;-9.47;65.20
46111;BME280;31849;55.992;37.252;2024-01-10T06:32:25;99015.91;;;-9.41;64.27
46111;BME280;31849;55.992;37.252;2024-01-10T06:37:29;99034.41;;;-9.52;64.66
46111;BME280;31849;55.992;37.252;2024-01-10T06:42:35;99039.97;;;-9.56;64.21
46111;BME280;31849;55.992;37.252;2024-01-10T06:47:41;99040.91;;;-9.67;64.38
46111;BME280;31849;55.992;37.252;2024-01-10T06:52:45;99045.94;;;-9.67;64.19
46111;BME280;31849;55.992;37.252;2024-01-10T06:57:49;99064.06;;;-9.60;64.79
46111;BME280;31849;55.992;37.252;2024-01-10T07:02:56;99062.06;;;-9.40;64.24
46111;BME280;31849;55.992;37.252;2024-01-10T07:08:02;99081.75;;;-9.34;63.54
46111;BME280;31849;55.992;37.252;2024-01-10T07:13:06;99090.50;;;-9.29;63.73
46111;BME280;31849;55.992;37.252;2024-01-10T07:18:11;99097.31;;;-9.40;63.79
46111;BME280;31849;55.992;37.252;2024-01-10T07:23:15;99100.53;;;-9.06;62.55
46111;BME280;31849;55.992;37.252;2024-01-10T07:28:19;99109.06;;;-8.28;61.29
46111;BME280;31849;55.992;37.252;2024-01-10T07:33:24;99111.19;;;-4.77;56.74
46111;BME280;31849;55.992;37.252;2024-01-10T07:38:28;99109.63;;;0.25;48.33
46111;BME280;31849;55.992;37.252;2024-01-10T07:43:32;99106.81;;;3.78;42.00
46111;BME280;31849;55.992;37.252;2024-01-10T07:48:37;99105.84;;;6.05;37.88
46111;BME280;31849;55.992;37.252;2024-01-10T07:53:42;99099.16;;;7.66;34.94
46111;BME280;31849;55.992;37.252;2024-01-10T07:58:49;99094.72;;;9.81;31.60
46111;BME280;31849;55.992;37.252;2024-01-10T08:03:55;99099.56;;;10.41;29.29
46111;BME280;31849;55.992;37.252;2024-01-10T08:08:59;99111.22;;;11.74;26.75
46111;BME280;31849;55.992;37.252;2024-01-10T08:14:02;99106.03;;;12.36;26.32
46111;BME280;31849;55.992;37.252;2024-01-10T08:19:08;99096.03;;;13.14;25.31
46111;BME280;31849;55.992;37.252;2024-01-10T08:24:13;99097.13;;;13.92;23.86
46111;BME280;31849;55.992;37.252;2024-01-10T08:29:17;99105.66;;;13.58;21.71
46111;BME280;31849;55.992;37.252;2024-01-10T08:34:22;99096.97;;;13.57;22.57
46111;BME280;31849;55.992;37.252;2024-01-10T08:39:26;99097.47;;;13.75;21.81
46111;BME280;31849;55.992;37.252;2024-01-10T08:44:32;99110.91;;;12.59;21.96
46111;BME280;31849;55.992;37.252;2024-01-10T08:49:38;99119.56;;;10.25;23.73
46111;BME280;31849;55.992;37.252;2024-01-10T08:54:42;99123.50;;;8.31;24.59
46111;BME280;31849;55.992;37.252;2024-01-10T08:59:46;99129.34;;;7.59;25.71
46111;BME280;31849;55.992;37.252;2024-01-10T09:04:52;99135.00;;;5.26;27.13
46111;BME280;31849;55.992;37.252;2024-01-10T09:09:56;99142.81;;;4.23;28.49
46111;BME280;31849;55.992;37.252;2024-01-10T09:15:00;99149.38;;;2.84;29.59
46111;BME280;31849;55.992;37.252;2024-01-10T09:20:08;99149.84;;;1.69;30.96
46111;BME280;31849;55.992;37.252;2024-01-10T09:25:12;99164.25;;;0.79;32.40
46111;BME280;31849;55.992;37.252;2024-01-10T09:30:16;99171.34;;;-0.83;33.53
46111;BME280;31849;55.992;37.252;2024-01-10T09:35:22;99163.03;;;-1.65;34.97
46111;BME280;31849;55.992;37.252;2024-01-10T09:40:25;99165.97;;;-2.16;35.82
46111;BME280;31849;55.992;37.252;2024-01-10T09:45:31;99175.72;;;-2.65;36.23
46111;BME280;31849;55.992;37.252;2024-01-10T09:50:39;99174.59;;;-4.12;38.33
46111;BME280;31849;55.992;37.252;2024-01-10T09:55:44;99178.69;;;-4.95;39.48
46111;BME280;31849;55.992;37.252;2024-01-10T10:00:48;99172.13;;;-5.53;40.72
46111;BME280;31849;55.992;37.252;2024-01-10T10:05:53;99158.69;;;-6.11;41.16
46111;BME280;31849;55.992;37.252;2024-01-10T10:10:57;99168.56;;;-6.16;42.19
46111;BME280;31849;55.992;37.252;2024-01-10T10:16:02;99171.47;;;-6.38;42.66
46111;BME280;31849;55.992;37.252;2024-01-10T10:21:09;99179.31;;;-6.62;42.82
46111;BME280;31849;55.992;37.252;2024-01-10T10:26:15;99186.16;;;-6.87;43.50
46111;BME280;31849;55.992;37.252;2024-01-10T10:31:24;99165.84;;;-6.89;44.02
46111;BME280;31849;55.992;37.252;2024-01-10T10:36:29;99178.97;;;-6.95;43.44
46111;BME280;31849;55.992;37.252;2024-01-10T10:41:35;99181.31;;;-7.11;44.55
46111;BME280;31849;55.992;37.252;2024-01-10T10:46:39;99183.66;;;-7.01;45.06
46111;BME280;31849;55.992;37.252;2024-01-10T10:51:47;99183.84;;;-6.98;44.93
46111;BME280;31849;55.992;37.252;2024-01-10T10:56:53;99194.34;;;-6.92;45.30
46111;BME280;31849;55.992;37.252;2024-01-10T11:01:58;99184.53;;;-7.00;46.09
46111;BME280;31849;55.992;37.252;2024-01-10T11:07:04;99167.72;;;-7.27;46.45
46111;BME280;31849;55.992;37.252;2024-01-10T11:12:21;99176.16;;;-7.66;47.54
46111;BME280;31849;55.992;37.252;2024-01-10T11:18:02;99179.53;;;-7.92;47.71
46111;BME280;31849;55.992;37.252;2024-01-10T11:23:44;99175.06;;;-8.22;48.32
46111;BME280;31849;55.992;37.252;2024-01-10T11:28:50;99190.97;;;-8.48;48.33
46111;BME280;31849;55.992;37.252;2024-01-10T11:33:55;99191.66;;;-8.62;48.93
46111;BME280;31849;55.992;37.252;2024-01-10T11:39:04;99177.81;;;-8.81;50.08
46111;BME280;31849;55.992;37.252;2024-01-10T11:44:26;99191.97;;;-8.95;50.63
46111;BME280;31849;55.992;37.252;2024-01-10T11:49:30;99199.56;;;-9.07;50.53
46111;BME280;31849;55.992;37.252;2024-01-10T11:54:42;99189.91;;;-9.12;50.65
46111;BME280;31849;55.992;37.252;2024-01-10T11:59:50;99187.06;;;-9.17;50.95
46111;BME280;31849;55.992;37.252;2024-01-10T12:04:54;99192.44;;;-9.12;50.82
46111;BME280;31849;55.992;37.252;2024-01-10T12:10:00;99186.75;;;-9.10;50.98
46111;BME280;31849;55.992;37.252;2024-01-10T12:15:05;99178.72;;;-9.16;50.95
46111;BME280;31849;55.992;37.252;2024-01-10T12:20:12;99177.97;;;-9.03;51.03
46111;BME280;31849;55.992;37.252;2024-01-10T12:25:17;99192.75;;;-8.96;51.62
46111;BME280;31849;55.992;37.252;2024-01-10T12:30:21;99192.22;;;-9.15;52.14
46111;BME280;31849;55.992;37.252;2024-01-10T12:35:25;99178.28;;;-9.10;52.14
46111;BME280;31849;55.992;37.252;2024-01-10T12:40:32;99149.22;;;-9.42;52.42
46111;BME280;31849;55.992;37.252;2024-01-10T12:45:35;99177.34;;;-9.36;52.42
46111;BME280;31849;55.992;37.252;2024-01-10T12:50:39;99173.38;;;-9.56;53.58
46111;BME280;31849;55.992;37.252;2024-01-10T12:55:45;99170.97;;;-9.66;53.41
46111;BME280;31849;55.992;37.252;2024-01-10T13:00:49;99161.09;;;-9.87;54.03
46111;BME280;31849;55.992;37.252;2024-01-10T13:05:53;99163.75;;;-9.85;54.35
46111;BME280;31849;55.992;37.252;2024-01-10T13:10:58;99151.59;;;-9.91;53.60
46111;BME280;31849;55.992;37.252;2024-01-10T13:16:03;99146.31;;;-10.06;54.45
46111;BME280;31849;55.992;37.252;2024-01-10T13:21:08;99145.19;;;-10.10;54.32
46111;BME280;31849;55.992;37.252;2024-01-10T13:26:14;99111.81;;;-10.43;54.56
46111;BME280;31849;55.992;37.252;2024-01-10T13:31:18;99115.41;;;-10.51;55.99
46111;BME280;31849;55.992;37.252;2024-01-10T13:36:22;99125.47;;;-10.51;55.96
46111;BME280;31849;55.992;37.252;2024-01-10T13:41:28;99111.09;;;-10.64;56.44
46111;BME280;31849;55.992;37.252;2024-01-10T13:46:32;99113.59;;;-10.64;57.03
46111;BME280;31849;55.992;37.252;2024-01-10T13:51:36;99108.13;;;-10.70;56.76
46111;BME280;31849;55.992;37.252;2024-01-10T13:56:44;99101.63;;;-10.78;56.70
46111;BME280;31849;55.992;37.252;2024-01-10T14:01:48;99082.72;;;-10.85;57.37
46111;BME280;31849;55.992;37.252;2024-01-10T14:06:52;99067.34;;;-10.77;57.31
46111;BME280;31849;55.992;37.252;2024-01-10T14:11:57;99060.56;;;-10.79;58.07
46111;BME280;31849;55.992;37.252;2024-01-10T14:17:01;99057.88;;;-10.70;57.22
46111;BME280;31849;55.992;37.252;2024-01-10T14:22:06;99059.50;;;-10.70;57.58
46111;BME280;31849;55.992;37.252;2024-01-10T14:27:28;99057.44;;;-10.76;57.54
46111;BME280;31849;55.992;37.252;2024-01-10T14:32:32;99041.91;;;-10.70;57.42
46111;BME280;31849;55.992;37.252;2024-01-10T14:37:36;99051.50;;;-10.76;58.97
46111;BME280;31849;55.992;37.252;2024-01-10T14:42:42;99039.13;;;-10.85;58.95
46111;BME280;31849;55.992;37.252;2024-01-10T14:47:45;99038.72;;;-10.80;58.11
46111;BME280;31849;55.992;37.252;2024-01-10T14:52:49;99041.38;;;-10.66;57.51
46111;BME280;31849;55.992;37.252;2024-01-10T14:57:54;99030.31;;;-10.80;58.23
46111;BME280;31849;55.992;37.252;2024-01-10T15:02:58;99037.25;;;-10.66;58.63
46111;BME280;31849;55.992;37.252;2024-01-10T15:08:07;99028.38;;;-10.72;58.51
46111;BME280;31849;55.992;37.252;2024-01-10T15:13:13;99028.63;;;-10.57;58.75
46111;BME280;31849;55.992;37.252;2024-01-10T15:18:17;99014.66;;;-10.54;59.08
46111;BME280;31849;55.992;37.252;2024-01-10T15:23:22;99008.41;;;-10.59;59.91
46111;BME280;31849;55.992;37.252;2024-01-10T15:28:28;99000.78;;;-10.49;59.73
46111;BME280;31849;55.992;37.252;2024-01-10T15:33:34;98987.16;;;-10.40;59.43
46111;BME280;31849;55.992;37.252;2024-01-10T15:38:39;98979.94;;;-10.36;58.96
46111;BME280;31849;55.992;37.252;2024-01-10T15:43:44;98972.78;;;-10.30;59.27
46111;BME280;31849;55.992;37.252;2024-01-10T15:48:49;98979.22;;;-10.21;59.10
46111;BME280;31849;55.992;37.252;2024-01-10T15:53:53;98968.75;;;-10.16;59.15
46111;BME280;31849;55.992;37.252;2024-01-10T15:59:01;98956.59;;;-10.21;59.94
46111;BME280;31849;55.992;37.252;2024-01-10T16:04:05;98954.66;;;-10.14;59.80
46111;BME280;31849;55.992;37.252;2024-01-10T16:09:08;98939.69;;;-10.12;59.34
46111;BME280;31849;55.992;37.252;2024-01-10T16:14:16;98927.00;;;-10.26;60.61
46111;BME280;31849;55.992;37.252;2024-01-10T16:19:20;98909.06;;;-10.30;60.66
46111;BME280;31849;55.992;37.252;2024-01-10T16:24:24;98909.16;;;-10.17;59.93
46111;BME280;31849;55.992;37.252;2024-01-10T16:29:29;98894.31;;;-10.14;60.36
46111;BME280;31849;55.992;37.252;2024-01-10T16:34:33;98878.66;;;-10.10;60.35
46111;BME280;31849;55.992;37.252;2024-01-10T16:39:37;98867.31;;;-10.28;62.83
46111;BME280;31849;55.992;37.252;2024-01-10T16:44:43;98845.03;;;-10.23;61.38
46111;BME280;31849;55.992;37.252;2024-01-10T16:49:46;98824.91;;;-10.23;61.54
46111;BME280;31849;55.992;37.252;2024-01-10T16:54:50;98807.22;;;-10.25;61.73
46111;BME280;31849;55.992;37.252;2024-01-10T16:59:55;98793.50;;;-10.17;62.33
46111;BME280;31849;55.992;37.252;2024-01-10T17:04:59;98763.97;;;-10.33;62.84
46111;BME280;31849;55.992;37.252;2024-01-10T17:10:06;98739.41;;;-10.37;63.27
46111;BME280;31849;55.992;37.252;2024-01-10T17:15:11;98745.03;;;-10.28;62.87
46111;BME280;31849;55.992;37.252;2024-01-10T17:20:16;98727.28;;;-10.17;62.69
46111;BME280;31849;55.992;37.252;2024-01-10T17:25:19;98712.09;;;-10.19;63.20
46111;BME280;31849;55.992;37.252;2024-01-10T17:30:28;98689.91;;;-10.38;64.76
46111;BME280;31849;55.992;37.252;2024-01-10T17:35:31;98671.06;;;-10.31;63.75
46111;BME280;31849;55.992;37.252;2024-01-10T17:40:35;98668.28;;;-10.22;63.31
46111;BME280;31849;55.992;37.252;2024-01-10T17:45:41;98657.53;;;-10.20;63.88
46111;BME280;31849;55.992;37.252;2024-01-10T17:50:45;98654.72;;;-10.25;64.27
46111;BME280;31849;55.992;37.252;2024-01-10T17:55:48;98636.97;;;-10.14;63.48
46111;BME280;31849;55.992;37.252;2024-01-10T18:00:54;98620.94;;;-10.03;63.81
46111;BME280;31849;55.992;37.252;2024-01-10T18:05:57;98605.28;;;-9.99;63.65
46111;BME280;31849;55.992;37.252;2024-01-10T18:11:01;98587.00;;;-9.83;63.44
46111;BME280;31849;55.992;37.252;2024-01-10T18:16:07;98575.78;;;-9.88;64.37
46111;BME280;31849;55.992;37.252;2024-01-10T18:21:11;98559.50;;;-9.80;63.74
46111;BME280;31849;55.992;37.252;2024-01-10T18:26:17;98534.25;;;-9.81;64.43
46111;BME280;31849;55.992;37.252;2024-01-10T18:31:22;98512.25;;;-9.85;64.65
46111;BME280;31849;55.992;37.252;2024-01-10T18:36:26;98490.56;;;-9.83;64.29
46111;BME280;31849;55.992;37.252;2024-01-10T18:41:32;98483.09;;;-9.82;64.95
46111;BME280;31849;55.992;37.252;2024-01-10T18:46:37;98471.88;;;-9.74;64.15
46111;BME280;31849;55.992;37.252;2024-01-10T18:51:41;98446.78;;;-9.59;64.45
46111;BME280;31849;55.992;37.252;2024-01-10T18:56:45;98437.22;;;-9.64;64.22
46111;BME280;31849;55.992;37.252;2024-01-10T19:01:50;98416.50;;;-9.60;65.94
46111;BME280;31849;55.992;37.252;2024-01-10T19:06:54;98394.72;;;-9.60;65.50
46111;BME280;31849;55.992;37.252;2024-01-10T19:11:58;98374.91;;;-9.68;66.21
46111;BME280;31849;55.992;37.252;2024-01-10T19:17:07;98366.94;;;-9.61;65.49
46111;BME280;31849;55.992;37.252;2024-01-10T19:22:11;98340.41;;;-9.41;65.34
46111;BME280;31849;55.992;37.252;2024-01-10T19:27:15;98329.13;;;-9.48;67.27
46111;BME280;31849;55.992;37.252;2024-01-10T19:32:20;98306.56;;;-9.46;65.99
46111;BME280;31849;55.992;37.252;2024-01-10T19:37:24;98284.75;;;-9.61;66.62
46111;BME280;31849;55.992;37.252;2024-01-10T19:42:30;98235.84;;;-9.51;65.76
46111;BME280;31849;55.992;37.252;2024-01-10T19:47:35;98240.34;;;-9.45;65.78
46111;BME280;31849;55.992;37.252;2024-01-10T19:52:40;98206.16;;;-9.57;66.32
46111;BME280;31849;55.992;37.252;2024-01-10T19:57:43;98199.81;;;-9.35;65.96
46111;BME280;31849;55.992;37.252;2024-01-10T20:02:48;98193.00;;;-9.21;66.38
46111;BME280;31849;55.992;37.252;2024-01-10T20:07:55;98181.19;;;-9.22;66.11
46111;BME280;31849;55.992;37.252;2024-01-10T20:12:58;98153.75;;;-9.17;66.56
46111;BME280;31849;55.992;37.252;2024-01-10T20:18:06;98122.75;;;-9.16;66.18
46111;BME280;31849;55.992;37.252;2024-01-10T20:23:10;98101.69;;;-9.18;67.62
46111;BME280;31849;55.992;37.252;2024-01-10T20:28:14;98086.19;;;-9.10;66.40
46111;BME280;31849;55.992;37.252;2024-01-10T20:33:21;98069.19;;;-9.14;66.91
46111;BME280;31849;55.992;37.252;2024-01-10T20:38:25;98058.19;;;-8.99;66.80
46111;BME280;31849;55.992;37.252;2024-01-10T20:43:29;98030.38;;;-9.01;67.42
46111;BME280;31849;55.992;37.252;2024-01-10T20:48:36;98005.59;;;-8.93;66.35
46111;BME280;31849;55.992;37.252;2024-01-10T20:53:40;97985.59;;;-8.90;67.76
46111;BME280;31849;55.992;37.252;2024-01-10T20:58:44;97959.06;;;-8.84;67.44
46111;BME280;31849;55.992;37.252;2024-01-10T21:03:49;97935.81;;;-8.78;67.36
46111;BME280;31849;55.992;37.252;2024-01-10T21:08:52;97914.41;;;-8.70;66.95
46111;BME280;31849;55.992;37.252;2024-01-10T21:13:59;97909.66;;;-8.63;67.52
46111;BME280;31849;55.992;37.252;2024-01-10T21:19:04;97877.88;;;-8.60;67.85
46111;BME280;31849;55.992;37.252;2024-01-10T21:24:08;97853.78;;;-8.55;67.87
46111;BME280;31849;55.992;37.252;2024-01-10T21:29:12;97819.94;;;-8.60;67.83
46111;BME280;31849;55.992;37.252;2024-01-10T21:34:17;97815.66;;;-8.43;67.63
46111;BME280;31849;55.992;37.252;2024-01-10T21:39:23;97802.94;;;-8.46;68.47
46111;BME280;31849;55.992;37.252;2024-01-10T21:44:27;97769.34;;;-8.45;69.15
46111;BME280;31849;55.992;37.252;2024-01-10T21:49:32;97744.63;;;-8.34;69.29
46111;BME280;31849;55.992;37.252;2024-01-10T21:54:36;97731.38;;;-8.28;69.05
46111;BME280;31849;55.992;37.252;2024-01-10T21:59:41;97716.56;;;-8.22;69.89
46111;BME280;31849;55.992;37.252;2024-01-10T22:04:46;97693.66;;;-8.07;69.68
46111;BME280;31849;55.992;37.252;2024-01-10T22:09:50;97671.06;;;-8.04;69.49
46111;BME280;31849;55.992;37.252;2024-01-10T22:14:54;97651.13;;;-7.98;68.91
46111;BME280;31849;55.992;37.252;2024-01-10T22:19:59;97630.66;;;-7.85;68.30
46111;BME280;31849;55.992;37.252;2024-01-10T22:25:05;97594.28;;;-7.90;70.04
46111;BME280;31849;55.992;37.252;2024-01-10T22:30:10;97557.94;;;-7.95;70.14
46111;BME280;31849;55.992;37.252;2024-01-10T22:35:15;97549.69;;;-7.91;69.90
46111;BME280;31849;55.992;37.252;2024-01-10T22:40:21;97531.66;;;-7.79;70.19
46111;BME280;31849;55.992;37.252;2024-01-10T22:45:24;97504.34;;;-7.67;69.38
46111;BME280;31849;55.992;37.252;2024-01-10T22:50:29;97490.88;;;-7.67;69.71
46111;BME280;31849;55.992;37.252;2024-01-10T22:55:33;97468.91;;;-7.70;70.46
46111;BME280;31849;55.992;37.252;2024-01-10T23:00:37;97453.69;;;-7.49;69.70
46111;BME280;31849;55.992;37.252;2024-01-10T23:05:42;97428.34;;;-7.52;70.28
46111;BME280;31849;55.992;37.252;2024-01-10T23:10:46;97416.03;;;-7.43;69.46
46111;BME280;31849;55.992;37.252;2024-01-10T23:15:50;97394.97;;;-7.43;70.28
46111;BME280;31849;55.992;37.252;2024-01-10T23:20:55;97381.28;;;-7.26;70.01
46111;BME280;31849;55.992;37.252;2024-01-10T23:26:02;97361.19;;;-7.22;70.58
46111;BME280;31849;55.992;37.252;2024-01-10T23:31:13;97340.16;;;-7.21;70.97
46111;BME280;31849;55.992;37.252;2024-01-10T23:36:19;97321.66;;;-7.20;70.78
46111;BME280;31849;55.992;37.252;2024-01-10T23:41:22;97299.44;;;-7.05;69.79
46111;BME280;31849;55.992;37.252;2024-01-10T23:46:26;97282.16;;;-6.93;70.61
46111;BME280;31849;55.992;37.252;2024-01-10T23:51:31;97261.94;;;-6.93;71.38
46111;BME280;31849;55.992;37.252;2024-01-10T23:56:35;97253.78;;;-6.84;71.23
